KLM44M EDLW-EHAM
Flight info
| Callsign | KLM44M |
|---|---|
| Flight time | N/A |
| Altitude | 22000 |
| Route | HMM7Q HMM T281 NORKU |
| Aircraft | A333/H-SDE3GHIJ2J3J5M1RVWXY/LB2D1 |
Departure
| Time | 2026-05-01 14:59 |
|---|---|
| Airport | Dortmund Airport (EDLW) |
Arrival
| Time | N/A |
|---|---|
| Airport | Amsterdam Airport Schiphol (EHAM) |
| Time | Latitude | Longitude | Altitude | Speed | Heading |
|---|---|---|---|---|---|
| 2026-05-01 14:41 | 51.51689 | 7.61582 | 433 ft | 0 kts | 149° |
| 2026-05-01 14:50 | 51.51723 | 7.61584 | 421 ft | 0 kts | 237° |
| 2026-05-01 14:53 | 51.51720 | 7.61573 | 416 ft | 3 kts | 246° |
| 2026-05-01 14:54 | 51.51705 | 7.61475 | 426 ft | 14 kts | 264° |
| 2026-05-01 14:54 | 51.51672 | 7.61312 | 425 ft | 17 kts | 237° |
| 2026-05-01 14:54 | 51.51609 | 7.61133 | 419 ft | 21 kts | 244° |
| 2026-05-01 14:54 | 51.51544 | 7.60913 | 421 ft | 22 kts | 240° |
| 2026-05-01 14:55 | 51.51464 | 7.60691 | 419 ft | 24 kts | 240° |
| 2026-05-01 14:55 | 51.51385 | 7.60470 | 418 ft | 22 kts | 240° |
| 2026-05-01 14:55 | 51.51370 | 7.60327 | 418 ft | 9 kts | 292° |
| 2026-05-01 14:55 | 51.51384 | 7.60297 | 421 ft | 0 kts | 315° |
| 2026-05-01 14:56 | 51.51385 | 7.60296 | 421 ft | 1 kts | 315° |
| 2026-05-01 14:57 | 51.51417 | 7.60257 | 422 ft | 10 kts | 326° |
| 2026-05-01 14:57 | 51.51503 | 7.60288 | 414 ft | 2 kts | 57° |
| 2026-05-01 14:57 | 51.51515 | 7.60317 | 417 ft | 4 kts | 57° |
| 2026-05-01 14:58 | 51.51525 | 7.60344 | 417 ft | 16 kts | 60° |
| 2026-05-01 14:58 | 51.51695 | 7.60861 | 418 ft | 84 kts | 59° |
| 2026-05-01 14:58 | 51.52089 | 7.61958 | 414 ft | 140 kts | 63° |
| 2026-05-01 14:58 | 51.52572 | 7.63440 | 1005 ft | 140 kts | 70° |
| 2026-05-01 14:59 | 51.52663 | 7.63734 | 1143 ft | 140 kts | 70° |
| 2026-05-01 14:59 | 51.53525 | 7.66369 | 1818 ft | 176 kts | 65° |
| 2026-05-01 14:59 | 51.54209 | 7.68287 | 2058 ft | 212 kts | 62° |
| 2026-05-01 14:59 | 51.55016 | 7.70519 | 2423 ft | 241 kts | 64° |
| 2026-05-01 15:00 | 51.56770 | 7.75357 | 3950 ft | 260 kts | 63° |
| 2026-05-01 15:00 | 51.57720 | 7.77972 | 4834 ft | 271 kts | 60° |
| 2026-05-01 15:01 | 51.60266 | 7.80596 | 6310 ft | 290 kts | 8° |
| 2026-05-01 15:01 | 51.63356 | 7.79694 | 7850 ft | 294 kts | 342° |
| 2026-05-01 15:01 | 51.63911 | 7.79403 | 8116 ft | 296 kts | 342° |
| 2026-05-01 15:01 | 51.67285 | 7.77762 | 9688 ft | 304 kts | 345° |
| 2026-05-01 15:02 | 51.68390 | 7.77287 | 10199 ft | 307 kts | 346° |
| 2026-05-01 15:02 | 51.73112 | 7.75434 | 11237 ft | 349 kts | 347° |
| 2026-05-01 15:02 | 51.75582 | 7.74522 | 11791 ft | 363 kts | 347° |
| 2026-05-01 15:03 | 51.78071 | 7.73612 | 12558 ft | 368 kts | 348° |
| 2026-05-01 15:03 | 51.80592 | 7.72692 | 13381 ft | 372 kts | 348° |
| 2026-05-01 15:03 | 51.83096 | 7.71720 | 14178 ft | 376 kts | 343° |
| 2026-05-01 15:03 | 51.85506 | 7.70012 | 14874 ft | 381 kts | 327° |
| 2026-05-01 15:04 | 51.87544 | 7.67244 | 15628 ft | 382 kts | 314° |
| 2026-05-01 15:04 | 51.89350 | 7.64068 | 16326 ft | 386 kts | 309° |
| 2026-05-01 15:04 | 51.91051 | 7.60668 | 16990 ft | 390 kts | 307° |
| 2026-05-01 15:04 | 51.92706 | 7.57175 | 17642 ft | 394 kts | 306° |
| 2026-05-01 15:05 | 51.94372 | 7.53620 | 18324 ft | 397 kts | 306° |
| 2026-05-01 15:05 | 51.96052 | 7.50050 | 18982 ft | 399 kts | 307° |
| 2026-05-01 15:05 | 51.97906 | 7.46181 | 19735 ft | 399 kts | 307° |
| 2026-05-01 15:05 | 51.99486 | 7.42938 | 20274 ft | 402 kts | 308° |
| 2026-05-01 15:06 | 52.01243 | 7.39360 | 20704 ft | 409 kts | 308° |
| 2026-05-01 15:06 | 52.03036 | 7.35712 | 21197 ft | 414 kts | 308° |
| 2026-05-01 15:06 | 52.04835 | 7.32044 | 21848 ft | 413 kts | 308° |
| 2026-05-01 15:06 | 52.06628 | 7.28387 | 22212 ft | 413 kts | 308° |
| 2026-05-01 15:07 | 52.08440 | 7.24685 | 22256 ft | 426 kts | 308° |
| 2026-05-01 15:07 | 52.10327 | 7.20823 | 22254 ft | 433 kts | 308° |
| 2026-05-01 15:07 | 52.12185 | 7.17012 | 22258 ft | 434 kts | 308° |
| 2026-05-01 15:07 | 52.14064 | 7.13153 | 22260 ft | 434 kts | 308° |
| 2026-05-01 15:08 | 52.15938 | 7.09293 | 22252 ft | 433 kts | 308° |
| 2026-05-01 15:08 | 52.17810 | 7.05426 | 22251 ft | 433 kts | 308° |
| 2026-05-01 15:08 | 52.19664 | 7.01588 | 22251 ft | 433 kts | 308° |
| 2026-05-01 15:08 | 52.21586 | 6.97621 | 22252 ft | 433 kts | 308° |
| 2026-05-01 15:09 | 52.23571 | 6.93633 | 22251 ft | 433 kts | 309° |
| 2026-05-01 15:09 | 52.25430 | 6.89922 | 22250 ft | 434 kts | 309° |
| 2026-05-01 15:09 | 52.27365 | 6.86057 | 22253 ft | 435 kts | 309° |
| 2026-05-01 15:09 | 52.29312 | 6.82162 | 22250 ft | 439 kts | 309° |
| 2026-05-01 15:10 | 52.31249 | 6.78279 | 22246 ft | 438 kts | 309° |
| 2026-05-01 15:10 | 52.35135 | 6.70469 | 22226 ft | 439 kts | 309° |
| 2026-05-01 15:10 | 52.36976 | 6.66764 | 21969 ft | 429 kts | 309° |
| 2026-05-01 15:11 | 52.38924 | 6.62836 | 21576 ft | 419 kts | 308° |
| 2026-05-01 15:11 | 52.41925 | 6.56763 | 20952 ft | 412 kts | 308° |
| 2026-05-01 15:11 | 52.44341 | 6.51876 | 20421 ft | 407 kts | 308° |
| 2026-05-01 15:12 | 52.45855 | 6.48457 | 20019 ft | 405 kts | 299° |
| 2026-05-01 15:12 | 52.47306 | 6.39260 | 19191 ft | 397 kts | 273° |
| 2026-05-01 15:12 | 52.47527 | 6.34754 | 18789 ft | 395 kts | 272° |
| 2026-05-01 15:13 | 52.48160 | 6.21117 | 17437 ft | 388 kts | 272° |
| 2026-05-01 15:14 | 52.48573 | 6.12483 | 16578 ft | 383 kts | 272° |
| 2026-05-01 15:14 | 52.48777 | 6.08198 | 16154 ft | 380 kts | 272° |
| 2026-05-01 15:14 | 52.49185 | 5.99598 | 15317 ft | 376 kts | 271° |
| 2026-05-01 15:15 | 52.49583 | 5.91100 | 14507 ft | 372 kts | 271° |
| 2026-05-01 15:15 | 52.49974 | 5.82650 | 13665 ft | 368 kts | 271° |
| 2026-05-01 15:16 | 52.50288 | 5.75791 | 12930 ft | 357 kts | 271° |
| 2026-05-01 15:16 | 52.50668 | 5.67372 | 12031 ft | 343 kts | 271° |
| 2026-05-01 15:17 | 52.50892 | 5.62310 | 11506 ft | 336 kts | 271° |
| 2026-05-01 15:18 | 52.51245 | 5.49683 | 10329 ft | 312 kts | 268° |
| 2026-05-01 15:18 | 52.51313 | 5.45059 | 10109 ft | 298 kts | 268° |
| 2026-05-01 15:19 | 52.51450 | 5.35106 | 9351 ft | 288 kts | 267° |
| 2026-05-01 15:19 | 52.51537 | 5.28558 | 8840 ft | 285 kts | 267° |
| 2026-05-01 15:19 | 52.51579 | 5.25341 | 8589 ft | 284 kts | 267° |
| 2026-05-01 15:20 | 52.51661 | 5.18845 | 8080 ft | 281 kts | 267° |
| 2026-05-01 15:20 | 52.51700 | 5.15694 | 7840 ft | 279 kts | 267° |
| 2026-05-01 15:20 | 52.51739 | 5.12511 | 7594 ft | 278 kts | 267° |
| 2026-05-01 15:21 | 52.51776 | 5.09353 | 7350 ft | 277 kts | 267° |
| 2026-05-01 15:21 | 52.51812 | 5.06190 | 7226 ft | 276 kts | 267° |
| 2026-05-01 15:21 | 52.51847 | 5.03030 | 7215 ft | 276 kts | 267° |
| 2026-05-01 15:21 | 52.51882 | 4.99892 | 7217 ft | 275 kts | 267° |
| 2026-05-01 15:22 | 52.51948 | 4.93638 | 7214 ft | 275 kts | 267° |
| 2026-05-01 15:22 | 52.51979 | 4.90499 | 7211 ft | 275 kts | 267° |
| 2026-05-01 15:22 | 52.52011 | 4.87322 | 7217 ft | 275 kts | 267° |
| 2026-05-01 15:23 | 52.52041 | 4.84205 | 7215 ft | 275 kts | 267° |
| 2026-05-01 15:23 | 52.52070 | 4.81058 | 7217 ft | 275 kts | 267° |
| 2026-05-01 15:23 | 52.52099 | 4.77946 | 7211 ft | 275 kts | 267° |
| 2026-05-01 15:23 | 52.52127 | 4.74803 | 7214 ft | 275 kts | 267° |
| 2026-05-01 15:24 | 52.52154 | 4.71653 | 7220 ft | 275 kts | 267° |
| 2026-05-01 15:24 | 52.52180 | 4.68505 | 7217 ft | 275 kts | 267° |
| 2026-05-01 15:24 | 52.52206 | 4.65350 | 7218 ft | 275 kts | 267° |
| 2026-05-01 15:24 | 52.52231 | 4.62216 | 7217 ft | 275 kts | 267° |
| 2026-05-01 15:25 | 52.52254 | 4.59020 | 7220 ft | 275 kts | 267° |
| 2026-05-01 15:25 | 52.52277 | 4.55880 | 7219 ft | 275 kts | 267° |
| 2026-05-01 15:25 | 52.52300 | 4.52731 | 7221 ft | 275 kts | 267° |
| 2026-05-01 15:25 | 52.52321 | 4.49590 | 7219 ft | 275 kts | 267° |
| 2026-05-01 15:26 | 52.52342 | 4.46414 | 7217 ft | 275 kts | 267° |
| 2026-05-01 15:26 | 52.52361 | 4.43291 | 7135 ft | 275 kts | 267° |
| 2026-05-01 15:26 | 52.52380 | 4.40141 | 6903 ft | 274 kts | 267° |
| 2026-05-01 15:26 | 52.52392 | 4.37010 | 6660 ft | 273 kts | 265° |
| 2026-05-01 15:27 | 52.52128 | 4.33981 | 6462 ft | 267 kts | 249° |
| 2026-05-01 15:27 | 52.51236 | 4.31322 | 6336 ft | 262 kts | 227° |
| 2026-05-01 15:27 | 52.49821 | 4.29509 | 6230 ft | 258 kts | 205° |
| 2026-05-01 15:28 | 52.46344 | 4.29110 | 6217 ft | 260 kts | 163° |
| 2026-05-01 15:28 | 52.44771 | 4.30583 | 6216 ft | 264 kts | 141° |
| 2026-05-01 15:28 | 52.43655 | 4.32983 | 6216 ft | 270 kts | 118° |
| 2026-05-01 15:29 | 52.43631 | 4.39095 | 6219 ft | 283 kts | 66° |
| 2026-05-01 15:29 | 52.44858 | 4.41624 | 6218 ft | 288 kts | 39° |
| 2026-05-01 15:29 | 52.48594 | 4.43980 | 6220 ft | 291 kts | 22° |
| 2026-05-01 15:30 | 52.51719 | 4.46204 | 5861 ft | 290 kts | 25° |
| 2026-05-01 15:31 | 52.58299 | 4.53600 | 5724 ft | 244 kts | 82° |
| 2026-05-01 15:31 | 52.58460 | 4.58415 | 5383 ft | 242 kts | 95° |
| 2026-05-01 15:32 | 52.58221 | 4.64261 | 4739 ft | 236 kts | 113° |
| 2026-05-01 15:32 | 52.56527 | 4.68211 | 4426 ft | 205 kts | 135° |
| 2026-05-01 15:33 | 52.53385 | 4.72535 | 3215 ft | 192 kts | 166° |
| 2026-05-01 15:34 | 52.49792 | 4.72487 | 2037 ft | 167 kts | 182° |